Xigaze, China
Current Conditions -  °F | °C
As of 3:50 PM on Friday 28 Nov 2014 (Local Time) from VNKT Reporting Station
Few Clouds Few Clouds  
Wind Chill: 66°   Ceiling: Unl
Heat Index: 66°   Visibility: 4mi
Dew Point: 46°   Wind: 7mph
Humidity: 49%   Direction: 160°SSE
Pressure: 30"   Gusts: NA
Location:  29.25°N, 88.87°E
Report Text: VNKT 280750Z 16006KT 6000 FEW020 19/08 Q1016 NOSIG
Loading
Personal Weather Stations






























Interactive Weather Map New forecast layout! Learn more

10-Day Weather Forecast

Advertisements
Track Severe Weather on mobile